sensor_id;sensor_type;location;lat;lon;timestamp;temperature;humidity
5176;DHT22;2607;50.934;6.934;2022-10-17T00:02:01;16.90;99.90
5176;DHT22;2607;50.934;6.934;2022-10-17T00:04:26;16.90;99.90
5176;DHT22;2607;50.934;6.934;2022-10-17T00:06:52;16.90;99.90
5176;DHT22;2607;50.934;6.934;2022-10-17T00:09:17;16.90;99.90
5176;DHT22;2607;50.934;6.934;2022-10-17T00:11:43;16.90;99.90
5176;DHT22;2607;50.934;6.934;2022-10-17T00:14:08;16.90;99.90
5176;DHT22;2607;50.934;6.934;2022-10-17T00:16:35;16.90;99.90
5176;DHT22;2607;50.934;6.934;2022-10-17T00:19:04;16.90;99.90
5176;DHT22;2607;50.934;6.934;2022-10-17T00:21:30;16.90;99.90
5176;DHT22;2607;50.934;6.934;2022-10-17T00:23:56;16.90;99.90
5176;DHT22;2607;50.934;6.934;2022-10-17T00:26:22;16.90;99.90
5176;DHT22;2607;50.934;6.934;2022-10-17T00:28:49;16.90;99.90
5176;DHT22;2607;50.934;6.934;2022-10-17T00:31:16;16.90;99.90
5176;DHT22;2607;50.934;6.934;2022-10-17T00:33:42;16.90;99.90
5176;DHT22;2607;50.934;6.934;2022-10-17T00:36:13;16.90;99.90
5176;DHT22;2607;50.934;6.934;2022-10-17T00:38:42;16.80;99.90
5176;DHT22;2607;50.934;6.934;2022-10-17T00:41:09;16.90;99.90
5176;DHT22;2607;50.934;6.934;2022-10-17T00:46:16;16.90;99.90
5176;DHT22;2607;50.934;6.934;2022-10-17T00:48:43;16.90;99.90
5176;DHT22;2607;50.934;6.934;2022-10-17T00:51:09;16.90;99.90
5176;DHT22;2607;50.934;6.934;2022-10-17T00:53:36;16.90;99.90
5176;DHT22;2607;50.934;6.934;2022-10-17T00:56:02;16.90;99.90
5176;DHT22;2607;50.934;6.934;2022-10-17T00:58:28;16.90;99.90
5176;DHT22;2607;50.934;6.934;2022-10-17T01:00:53;16.90;99.90
5176;DHT22;2607;50.934;6.934;2022-10-17T01:03:19;16.90;99.90
5176;DHT22;2607;50.934;6.934;2022-10-17T01:05:45;16.90;99.90
5176;DHT22;2607;50.934;6.934;2022-10-17T01:08:11;16.90;99.90
5176;DHT22;2607;50.934;6.934;2022-10-17T01:16:56;16.90;99.90
5176;DHT22;2607;50.934;6.934;2022-10-17T01:22:31;16.90;99.90
5176;DHT22;2607;50.934;6.934;2022-10-17T01:25:31;16.90;99.90
5176;DHT22;2607;50.934;6.934;2022-10-17T01:28:18;16.80;99.90
5176;DHT22;2607;50.934;6.934;2022-10-17T01:30:52;16.80;99.90
5176;DHT22;2607;50.934;6.934;2022-10-17T01:33:22;16.80;99.90
5176;DHT22;2607;50.934;6.934;2022-10-17T01:35:54;16.80;99.90
5176;DHT22;2607;50.934;6.934;2022-10-17T01:38:25;16.80;99.90
5176;DHT22;2607;50.934;6.934;2022-10-17T01:41:07;16.80;99.90
5176;DHT22;2607;50.934;6.934;2022-10-17T01:43:46;16.80;99.90
5176;DHT22;2607;50.934;6.934;2022-10-17T01:46:22;16.80;99.90
5176;DHT22;2607;50.934;6.934;2022-10-17T01:48:49;16.80;99.90
5176;DHT22;2607;50.934;6.934;2022-10-17T01:51:23;16.80;99.90
5176;DHT22;2607;50.934;6.934;2022-10-17T01:54:24;16.70;99.90
5176;DHT22;2607;50.934;6.934;2022-10-17T01:56:52;16.80;99.90
5176;DHT22;2607;50.934;6.934;2022-10-17T01:59:23;16.70;99.90
5176;DHT22;2607;50.934;6.934;2022-10-17T02:01:52;16.70;99.90
5176;DHT22;2607;50.934;6.934;2022-10-17T02:04:18;16.70;99.90
5176;DHT22;2607;50.934;6.934;2022-10-17T02:06:44;16.70;99.90
5176;DHT22;2607;50.934;6.934;2022-10-17T02:09:24;16.70;99.90
5176;DHT22;2607;50.934;6.934;2022-10-17T02:15:14;16.70;99.90
5176;DHT22;2607;50.934;6.934;2022-10-17T02:17:47;16.70;99.90
5176;DHT22;2607;50.934;6.934;2022-10-17T02:23:22;16.60;99.90
5176;DHT22;2607;50.934;6.934;2022-10-17T02:29:05;16.60;99.90
5176;DHT22;2607;50.934;6.934;2022-10-17T02:31:57;16.60;99.90
5176;DHT22;2607;50.934;6.934;2022-10-17T02:34:30;16.60;99.90
5176;DHT22;2607;50.934;6.934;2022-10-17T02:36:59;16.60;99.90
5176;DHT22;2607;50.934;6.934;2022-10-17T02:39:27;16.60;99.90
5176;DHT22;2607;50.934;6.934;2022-10-17T02:41:55;16.60;99.90
5176;DHT22;2607;50.934;6.934;2022-10-17T02:44:22;16.60;99.90
5176;DHT22;2607;50.934;6.934;2022-10-17T02:46:54;16.60;99.90
5176;DHT22;2607;50.934;6.934;2022-10-17T02:49:25;16.60;99.90
5176;DHT22;2607;50.934;6.934;2022-10-17T02:55:13;16.50;99.90
5176;DHT22;2607;50.934;6.934;2022-10-17T02:57:45;16.50;99.90
5176;DHT22;2607;50.934;6.934;2022-10-17T03:00:13;16.50;99.90
5176;DHT22;2607;50.934;6.934;2022-10-17T03:02:45;16.60;99.90
5176;DHT22;2607;50.934;6.934;2022-10-17T03:05:14;16.50;99.90
5176;DHT22;2607;50.934;6.934;2022-10-17T03:07:40;16.50;99.90
5176;DHT22;2607;50.934;6.934;2022-10-17T03:10:06;16.50;99.90
5176;DHT22;2607;50.934;6.934;2022-10-17T03:12:32;16.50;99.90
5176;DHT22;2607;50.934;6.934;2022-10-17T03:14:57;16.50;99.90
5176;DHT22;2607;50.934;6.934;2022-10-17T03:17:23;16.60;99.90
5176;DHT22;2607;50.934;6.934;2022-10-17T03:19:48;16.50;99.90
5176;DHT22;2607;50.934;6.934;2022-10-17T03:22:14;16.50;99.90
5176;DHT22;2607;50.934;6.934;2022-10-17T03:24:39;16.50;99.90
5176;DHT22;2607;50.934;6.934;2022-10-17T03:27:05;16.50;99.90
5176;DHT22;2607;50.934;6.934;2022-10-17T03:29:30;16.50;99.90
5176;DHT22;2607;50.934;6.934;2022-10-17T03:31:56;16.50;99.90
5176;DHT22;2607;50.934;6.934;2022-10-17T03:34:22;16.50;99.90
5176;DHT22;2607;50.934;6.934;2022-10-17T03:36:48;16.50;99.90
5176;DHT22;2607;50.934;6.934;2022-10-17T03:39:13;16.50;99.90
5176;DHT22;2607;50.934;6.934;2022-10-17T03:41:39;16.50;99.90
5176;DHT22;2607;50.934;6.934;2022-10-17T03:44:04;16.50;99.90
5176;DHT22;2607;50.934;6.934;2022-10-17T03:46:30;16.50;99.90
5176;DHT22;2607;50.934;6.934;2022-10-17T03:48:55;16.50;99.90
5176;DHT22;2607;50.934;6.934;2022-10-17T03:51:21;16.50;99.90
5176;DHT22;2607;50.934;6.934;2022-10-17T03:53:47;16.50;99.90
5176;DHT22;2607;50.934;6.934;2022-10-17T03:58:38;16.50;99.90
5176;DHT22;2607;50.934;6.934;2022-10-17T04:01:06;16.60;99.90
5176;DHT22;2607;50.934;6.934;2022-10-17T04:03:32;16.50;99.90
5176;DHT22;2607;50.934;6.934;2022-10-17T04:06:02;16.50;99.90
5176;DHT22;2607;50.934;6.934;2022-10-17T04:08:28;16.50;99.90
5176;DHT22;2607;50.934;6.934;2022-10-17T04:11:00;16.50;99.90
5176;DHT22;2607;50.934;6.934;2022-10-17T04:13:27;16.50;99.90
5176;DHT22;2607;50.934;6.934;2022-10-17T04:15:57;16.50;99.90
5176;DHT22;2607;50.934;6.934;2022-10-17T04:18:23;16.50;99.90
5176;DHT22;2607;50.934;6.934;2022-10-17T04:20:49;16.50;99.90
5176;DHT22;2607;50.934;6.934;2022-10-17T04:23:15;16.50;99.90
5176;DHT22;2607;50.934;6.934;2022-10-17T04:25:40;16.50;99.90
5176;DHT22;2607;50.934;6.934;2022-10-17T04:28:06;16.50;99.90
5176;DHT22;2607;50.934;6.934;2022-10-17T04:30:31;16.50;99.90
5176;DHT22;2607;50.934;6.934;2022-10-17T04:32:57;16.50;99.90
5176;DHT22;2607;50.934;6.934;2022-10-17T04:35:22;16.50;99.90
5176;DHT22;2607;50.934;6.934;2022-10-17T04:37:48;16.50;99.90
5176;DHT22;2607;50.934;6.934;2022-10-17T04:40:14;16.50;99.90
5176;DHT22;2607;50.934;6.934;2022-10-17T04:42:39;16.50;99.90
5176;DHT22;2607;50.934;6.934;2022-10-17T04:45:05;16.50;99.90
5176;DHT22;2607;50.934;6.934;2022-10-17T04:47:31;16.50;99.90
5176;DHT22;2607;50.934;6.934;2022-10-17T04:49:56;16.60;99.90
5176;DHT22;2607;50.934;6.934;2022-10-17T04:52:22;16.60;99.90
5176;DHT22;2607;50.934;6.934;2022-10-17T04:54:49;16.50;99.90
5176;DHT22;2607;50.934;6.934;2022-10-17T04:57:15;16.50;99.90
5176;DHT22;2607;50.934;6.934;2022-10-17T04:59:40;16.50;99.90
5176;DHT22;2607;50.934;6.934;2022-10-17T05:02:06;16.50;99.90
5176;DHT22;2607;50.934;6.934;2022-10-17T05:04:31;16.50;99.90
5176;DHT22;2607;50.934;6.934;2022-10-17T05:06:57;16.50;99.90
5176;DHT22;2607;50.934;6.934;2022-10-17T05:09:22;16.50;99.90
5176;DHT22;2607;50.934;6.934;2022-10-17T05:11:48;16.50;99.90
5176;DHT22;2607;50.934;6.934;2022-10-17T05:14:14;16.50;99.90
5176;DHT22;2607;50.934;6.934;2022-10-17T05:16:40;16.50;99.90
5176;DHT22;2607;50.934;6.934;2022-10-17T05:19:05;16.50;99.90
5176;DHT22;2607;50.934;6.934;2022-10-17T05:21:31;16.50;99.90
5176;DHT22;2607;50.934;6.934;2022-10-17T05:23:57;16.50;99.90
5176;DHT22;2607;50.934;6.934;2022-10-17T05:26:23;16.50;99.90
5176;DHT22;2607;50.934;6.934;2022-10-17T05:28:49;16.50;99.90
5176;DHT22;2607;50.934;6.934;2022-10-17T05:31:17;16.50;99.90
5176;DHT22;2607;50.934;6.934;2022-10-17T05:33:43;16.50;99.90
5176;DHT22;2607;50.934;6.934;2022-10-17T05:36:09;16.50;99.90
5176;DHT22;2607;50.934;6.934;2022-10-17T05:38:35;16.50;99.90
5176;DHT22;2607;50.934;6.934;2022-10-17T05:41:02;16.50;99.90
5176;DHT22;2607;50.934;6.934;2022-10-17T05:43:28;16.50;99.90
5176;DHT22;2607;50.934;6.934;2022-10-17T05:45:54;16.50;99.90
5176;DHT22;2607;50.934;6.934;2022-10-17T05:48:21;16.50;99.90
5176;DHT22;2607;50.934;6.934;2022-10-17T05:50:47;16.50;99.90
5176;DHT22;2607;50.934;6.934;2022-10-17T05:53:13;16.50;99.90
5176;DHT22;2607;50.934;6.934;2022-10-17T05:55:38;16.50;99.90
5176;DHT22;2607;50.934;6.934;2022-10-17T05:58:04;16.50;99.90
5176;DHT22;2607;50.934;6.934;2022-10-17T06:00:29;16.50;99.90
5176;DHT22;2607;50.934;6.934;2022-10-17T06:02:55;16.50;99.90
5176;DHT22;2607;50.934;6.934;2022-10-17T06:05:21;16.50;99.90
5176;DHT22;2607;50.934;6.934;2022-10-17T06:07:46;16.50;99.90
5176;DHT22;2607;50.934;6.934;2022-10-17T06:10:14;16.50;99.90
5176;DHT22;2607;50.934;6.934;2022-10-17T06:12:42;16.50;99.90
5176;DHT22;2607;50.934;6.934;2022-10-17T06:15:08;16.50;99.90
5176;DHT22;2607;50.934;6.934;2022-10-17T06:17:34;16.50;99.90
5176;DHT22;2607;50.934;6.934;2022-10-17T06:19:59;16.50;99.90
5176;DHT22;2607;50.934;6.934;2022-10-17T06:22:25;16.50;99.90
5176;DHT22;2607;50.934;6.934;2022-10-17T06:24:51;16.50;99.90
5176;DHT22;2607;50.934;6.934;2022-10-17T06:27:19;16.50;99.90
5176;DHT22;2607;50.934;6.934;2022-10-17T06:29:46;16.50;99.90
5176;DHT22;2607;50.934;6.934;2022-10-17T06:32:12;16.60;99.90
5176;DHT22;2607;50.934;6.934;2022-10-17T06:34:37;16.60;99.90
5176;DHT22;2607;50.934;6.934;2022-10-17T06:37:03;16.60;99.90
5176;DHT22;2607;50.934;6.934;2022-10-17T06:39:28;16.60;99.90
5176;DHT22;2607;50.934;6.934;2022-10-17T06:41:59;16.60;99.90
5176;DHT22;2607;50.934;6.934;2022-10-17T06:44:25;16.70;99.90
5176;DHT22;2607;50.934;6.934;2022-10-17T06:46:55;16.70;99.90
5176;DHT22;2607;50.934;6.934;2022-10-17T06:49:21;16.70;99.90
5176;DHT22;2607;50.934;6.934;2022-10-17T06:51:46;16.80;99.90
5176;DHT22;2607;50.934;6.934;2022-10-17T06:54:12;16.80;99.90
5176;DHT22;2607;50.934;6.934;2022-10-17T06:56:37;16.80;99.90
5176;DHT22;2607;50.934;6.934;2022-10-17T06:59:03;16.80;99.90
5176;DHT22;2607;50.934;6.934;2022-10-17T07:01:30;16.80;99.90
5176;DHT22;2607;50.934;6.934;2022-10-17T07:03:55;16.80;99.90
5176;DHT22;2607;50.934;6.934;2022-10-17T07:06:21;16.90;99.90
5176;DHT22;2607;50.934;6.934;2022-10-17T07:08:49;16.90;99.90
5176;DHT22;2607;50.934;6.934;2022-10-17T07:11:17;16.90;99.90
5176;DHT22;2607;50.934;6.934;2022-10-17T07:13:42;17.00;99.90
5176;DHT22;2607;50.934;6.934;2022-10-17T07:16:09;17.00;99.90
5176;DHT22;2607;50.934;6.934;2022-10-17T07:18:35;17.00;99.90
5176;DHT22;2607;50.934;6.934;2022-10-17T07:21:01;17.10;99.90
5176;DHT22;2607;50.934;6.934;2022-10-17T07:23:27;17.10;99.90
5176;DHT22;2607;50.934;6.934;2022-10-17T07:25:57;17.10;99.90
5176;DHT22;2607;50.934;6.934;2022-10-17T07:28:23;17.20;99.90
5176;DHT22;2607;50.934;6.934;2022-10-17T07:30:48;17.20;99.90
5176;DHT22;2607;50.934;6.934;2022-10-17T07:33:14;17.20;99.90
5176;DHT22;2607;50.934;6.934;2022-10-17T07:35:40;17.30;99.90
5176;DHT22;2607;50.934;6.934;2022-10-17T07:38:05;17.30;99.90
5176;DHT22;2607;50.934;6.934;2022-10-17T07:40:31;17.30;99.90
5176;DHT22;2607;50.934;6.934;2022-10-17T07:42:57;17.30;99.90
5176;DHT22;2607;50.934;6.934;2022-10-17T07:45:22;17.30;99.90
5176;DHT22;2607;50.934;6.934;2022-10-17T07:47:48;17.30;99.90
5176;DHT22;2607;50.934;6.934;2022-10-17T07:50:14;17.40;99.90
5176;DHT22;2607;50.934;6.934;2022-10-17T07:52:39;17.40;99.90
5176;DHT22;2607;50.934;6.934;2022-10-17T07:55:08;17.40;99.90
5176;DHT22;2607;50.934;6.934;2022-10-17T07:57:33;17.40;99.90
5176;DHT22;2607;50.934;6.934;2022-10-17T07:59:59;17.50;99.90
5176;DHT22;2607;50.934;6.934;2022-10-17T08:02:26;17.50;99.90
5176;DHT22;2607;50.934;6.934;2022-10-17T08:04:52;17.50;99.90
5176;DHT22;2607;50.934;6.934;2022-10-17T08:07:18;17.50;99.90
5176;DHT22;2607;50.934;6.934;2022-10-17T08:09:45;17.60;99.90
5176;DHT22;2607;50.934;6.934;2022-10-17T08:12:11;17.60;99.90
5176;DHT22;2607;50.934;6.934;2022-10-17T08:14:36;17.60;99.90
5176;DHT22;2607;50.934;6.934;2022-10-17T08:17:03;17.60;99.90
5176;DHT22;2607;50.934;6.934;2022-10-17T08:19:29;17.60;99.90
5176;DHT22;2607;50.934;6.934;2022-10-17T08:21:54;17.70;99.90
5176;DHT22;2607;50.934;6.934;2022-10-17T08:24:20;17.70;99.90
5176;DHT22;2607;50.934;6.934;2022-10-17T08:26:45;17.70;99.90
5176;DHT22;2607;50.934;6.934;2022-10-17T08:29:13;17.80;99.90
5176;DHT22;2607;50.934;6.934;2022-10-17T08:31:38;17.80;99.90
5176;DHT22;2607;50.934;6.934;2022-10-17T08:34:04;17.80;99.90
5176;DHT22;2607;50.934;6.934;2022-10-17T08:36:29;17.90;99.90
5176;DHT22;2607;50.934;6.934;2022-10-17T08:38:55;17.90;99.90
5176;DHT22;2607;50.934;6.934;2022-10-17T08:42:24;17.90;99.90
5176;DHT22;2607;50.934;6.934;2022-10-17T08:44:58;18.00;99.90
5176;DHT22;2607;50.934;6.934;2022-10-17T08:47:41;18.00;99.90
5176;DHT22;2607;50.934;6.934;2022-10-17T08:52:52;18.20;99.90
5176;DHT22;2607;50.934;6.934;2022-10-17T08:55:28;18.20;99.90
5176;DHT22;2607;50.934;6.934;2022-10-17T08:57:56;18.30;99.90
5176;DHT22;2607;50.934;6.934;2022-10-17T09:00:22;18.30;99.90
5176;DHT22;2607;50.934;6.934;2022-10-17T09:03:41;18.30;99.90
5176;DHT22;2607;50.934;6.934;2022-10-17T09:06:18;18.40;99.90
5176;DHT22;2607;50.934;6.934;2022-10-17T09:09:02;18.30;99.90
5176;DHT22;2607;50.934;6.934;2022-10-17T09:17:11;18.50;99.90
5176;DHT22;2607;50.934;6.934;2022-10-17T09:19:45;18.50;99.90
5176;DHT22;2607;50.934;6.934;2022-10-17T09:22:19;18.50;99.90
5176;DHT22;2607;50.934;6.934;2022-10-17T09:24:56;18.60;99.90
5176;DHT22;2607;50.934;6.934;2022-10-17T09:27:39;18.60;99.90
5176;DHT22;2607;50.934;6.934;2022-10-17T09:35:37;18.80;99.90
5176;DHT22;2607;50.934;6.934;2022-10-17T09:38:03;18.80;99.90
5176;DHT22;2607;50.934;6.934;2022-10-17T09:40:34;18.80;99.90
5176;DHT22;2607;50.934;6.934;2022-10-17T09:43:02;18.90;99.90
5176;DHT22;2607;50.934;6.934;2022-10-17T09:45:32;18.90;99.90
5176;DHT22;2607;50.934;6.934;2022-10-17T09:48:10;18.90;99.90
5176;DHT22;2607;50.934;6.934;2022-10-17T09:50:38;19.00;99.90
5176;DHT22;2607;50.934;6.934;2022-10-17T09:53:17;19.00;99.90
5176;DHT22;2607;50.934;6.934;2022-10-17T09:55:48;19.10;99.90
5176;DHT22;2607;50.934;6.934;2022-10-17T09:58:14;19.10;99.90
5176;DHT22;2607;50.934;6.934;2022-10-17T10:00:42;19.20;99.90
5176;DHT22;2607;50.934;6.934;2022-10-17T10:03:26;19.20;99.90
5176;DHT22;2607;50.934;6.934;2022-10-17T10:08:30;19.30;99.90
5176;DHT22;2607;50.934;6.934;2022-10-17T10:11:05;19.30;99.90
5176;DHT22;2607;50.934;6.934;2022-10-17T10:13:33;19.40;99.90
5176;DHT22;2607;50.934;6.934;2022-10-17T10:16:19;19.50;99.90
5176;DHT22;2607;50.934;6.934;2022-10-17T10:18:46;19.60;99.90
5176;DHT22;2607;50.934;6.934;2022-10-17T10:21:15;19.60;99.90
5176;DHT22;2607;50.934;6.934;2022-10-17T10:23:43;19.70;99.90
5176;DHT22;2607;50.934;6.934;2022-10-17T10:26:24;19.80;99.90
5176;DHT22;2607;50.934;6.934;2022-10-17T10:28:56;19.90;99.90
5176;DHT22;2607;50.934;6.934;2022-10-17T10:31:40;19.90;99.90
5176;DHT22;2607;50.934;6.934;2022-10-17T10:34:24;19.90;99.90
5176;DHT22;2607;50.934;6.934;2022-10-17T10:42:05;20.00;99.90
5176;DHT22;2607;50.934;6.934;2022-10-17T10:44:33;20.00;99.90
5176;DHT22;2607;50.934;6.934;2022-10-17T10:47:17;20.00;99.90
5176;DHT22;2607;50.934;6.934;2022-10-17T10:49:44;20.10;99.90
5176;DHT22;2607;50.934;6.934;2022-10-17T10:52:32;20.10;99.90
5176;DHT22;2607;50.934;6.934;2022-10-17T10:55:15;20.10;99.90
5176;DHT22;2607;50.934;6.934;2022-10-17T10:57:43;20.10;99.90
5176;DHT22;2607;50.934;6.934;2022-10-17T11:00:15;20.10;99.90
5176;DHT22;2607;50.934;6.934;2022-10-17T11:02:48;20.10;99.90
5176;DHT22;2607;50.934;6.934;2022-10-17T11:05:43;20.20;99.90
5176;DHT22;2607;50.934;6.934;2022-10-17T11:08:28;20.20;99.90
5176;DHT22;2607;50.934;6.934;2022-10-17T11:13:41;20.20;99.90
5176;DHT22;2607;50.934;6.934;2022-10-17T11:16:28;20.20;99.90
5176;DHT22;2607;50.934;6.934;2022-10-17T11:18:58;20.10;99.90
5176;DHT22;2607;50.934;6.934;2022-10-17T11:21:46;20.10;99.90
5176;DHT22;2607;50.934;6.934;2022-10-17T11:24:31;20.10;99.90
5176;DHT22;2607;50.934;6.934;2022-10-17T11:27:00;20.10;99.90
5176;DHT22;2607;50.934;6.934;2022-10-17T11:29:37;20.10;99.90
5176;DHT22;2607;50.934;6.934;2022-10-17T11:32:12;20.20;99.90
5176;DHT22;2607;50.934;6.934;2022-10-17T11:34:44;20.20;99.90
5176;DHT22;2607;50.934;6.934;2022-10-17T11:37:20;20.20;99.90
5176;DHT22;2607;50.934;6.934;2022-10-17T11:39:59;20.20;99.90
5176;DHT22;2607;50.934;6.934;2022-10-17T11:42:30;20.20;99.90
5176;DHT22;2607;50.934;6.934;2022-10-17T11:45:02;20.20;99.90
5176;DHT22;2607;50.934;6.934;2022-10-17T11:47:52;20.20;99.90
5176;DHT22;2607;50.934;6.934;2022-10-17T11:50:34;20.20;99.90
5176;DHT22;2607;50.934;6.934;2022-10-17T11:53:15;20.20;99.90
5176;DHT22;2607;50.934;6.934;2022-10-17T11:55:41;20.20;99.90
5176;DHT22;2607;50.934;6.934;2022-10-17T12:11:57;20.20;99.90
5176;DHT22;2607;50.934;6.934;2022-10-17T12:16:58;20.20;99.90
5176;DHT22;2607;50.934;6.934;2022-10-17T12:19:35;20.10;99.90
5176;DHT22;2607;50.934;6.934;2022-10-17T12:22:05;20.10;99.90
5176;DHT22;2607;50.934;6.934;2022-10-17T12:24:43;20.10;99.90
5176;DHT22;2607;50.934;6.934;2022-10-17T12:30:05;20.10;99.90
5176;DHT22;2607;50.934;6.934;2022-10-17T12:32:32;20.10;99.90
5176;DHT22;2607;50.934;6.934;2022-10-17T12:34:58;20.10;99.90
5176;DHT22;2607;50.934;6.934;2022-10-17T12:45:49;20.00;99.90
5176;DHT22;2607;50.934;6.934;2022-10-17T12:51:09;20.00;99.90
5176;DHT22;2607;50.934;6.934;2022-10-17T12:56:18;20.00;99.90
5176;DHT22;2607;50.934;6.934;2022-10-17T12:58:46;20.00;99.90
5176;DHT22;2607;50.934;6.934;2022-10-17T13:01:18;20.00;99.90
5176;DHT22;2607;50.934;6.934;2022-10-17T13:03:48;20.00;99.90
5176;DHT22;2607;50.934;6.934;2022-10-17T13:06:24;20.00;99.90
5176;DHT22;2607;50.934;6.934;2022-10-17T13:09:04;20.00;99.90
5176;DHT22;2607;50.934;6.934;2022-10-17T13:11:32;20.00;99.90
5176;DHT22;2607;50.934;6.934;2022-10-17T13:14:02;20.00;99.90
5176;DHT22;2607;50.934;6.934;2022-10-17T13:16:37;20.00;99.90
5176;DHT22;2607;50.934;6.934;2022-10-17T13:19:15;20.00;99.90
5176;DHT22;2607;50.934;6.934;2022-10-17T13:21:53;20.00;99.90
5176;DHT22;2607;50.934;6.934;2022-10-17T13:24:22;20.00;99.90
5176;DHT22;2607;50.934;6.934;2022-10-17T13:26:52;19.90;99.90
5176;DHT22;2607;50.934;6.934;2022-10-17T13:29:18;19.90;99.90
5176;DHT22;2607;50.934;6.934;2022-10-17T13:31:54;19.90;99.90
5176;DHT22;2607;50.934;6.934;2022-10-17T13:34:22;19.90;99.90
5176;DHT22;2607;50.934;6.934;2022-10-17T13:36:51;19.90;99.90
5176;DHT22;2607;50.934;6.934;2022-10-17T13:39:21;19.90;99.90
5176;DHT22;2607;50.934;6.934;2022-10-17T13:41:47;19.80;99.90
5176;DHT22;2607;50.934;6.934;2022-10-17T13:44:18;19.80;99.90
5176;DHT22;2607;50.934;6.934;2022-10-17T13:46:45;19.80;99.90
5176;DHT22;2607;50.934;6.934;2022-10-17T13:49:36;19.80;99.90
5176;DHT22;2607;50.934;6.934;2022-10-17T13:52:05;19.80;99.90
5176;DHT22;2607;50.934;6.934;2022-10-17T13:54:39;19.80;99.90
5176;DHT22;2607;50.934;6.934;2022-10-17T13:57:25;19.90;99.90
5176;DHT22;2607;50.934;6.934;2022-10-17T14:00:04;19.90;99.90
5176;DHT22;2607;50.934;6.934;2022-10-17T14:02:31;19.90;99.90
5176;DHT22;2607;50.934;6.934;2022-10-17T14:10:05;19.90;99.90
5176;DHT22;2607;50.934;6.934;2022-10-17T14:12:32;20.00;99.90
5176;DHT22;2607;50.934;6.934;2022-10-17T14:14:58;20.00;99.90
5176;DHT22;2607;50.934;6.934;2022-10-17T14:17:27;20.00;99.90
5176;DHT22;2607;50.934;6.934;2022-10-17T14:19:57;20.10;99.90
5176;DHT22;2607;50.934;6.934;2022-10-17T14:22:24;20.10;99.90
5176;DHT22;2607;50.934;6.934;2022-10-17T14:24:51;20.10;99.90
5176;DHT22;2607;50.934;6.934;2022-10-17T14:27:50;20.10;99.90
5176;DHT22;2607;50.934;6.934;2022-10-17T14:30:37;20.10;99.90
5176;DHT22;2607;50.934;6.934;2022-10-17T14:33:07;20.10;99.90
5176;DHT22;2607;50.934;6.934;2022-10-17T14:35:35;20.10;99.90
5176;DHT22;2607;50.934;6.934;2022-10-17T14:38:03;20.10;99.90
5176;DHT22;2607;50.934;6.934;2022-10-17T14:40:31;20.10;99.90
5176;DHT22;2607;50.934;6.934;2022-10-17T14:43:00;20.10;99.90
5176;DHT22;2607;50.934;6.934;2022-10-17T14:47:58;20.10;99.90
5176;DHT22;2607;50.934;6.934;2022-10-17T14:50:26;20.10;99.90
5176;DHT22;2607;50.934;6.934;2022-10-17T14:53:21;20.10;99.90
5176;DHT22;2607;50.934;6.934;2022-10-17T14:55:57;20.10;99.90
5176;DHT22;2607;50.934;6.934;2022-10-17T14:58:25;20.20;99.90
5176;DHT22;2607;50.934;6.934;2022-10-17T15:00:55;20.20;99.90
5176;DHT22;2607;50.934;6.934;2022-10-17T15:03:21;20.20;99.90
5176;DHT22;2607;50.934;6.934;2022-10-17T15:05:48;20.20;99.90
5176;DHT22;2607;50.934;6.934;2022-10-17T15:08:19;20.20;99.90
5176;DHT22;2607;50.934;6.934;2022-10-17T15:10:46;20.20;99.90
5176;DHT22;2607;50.934;6.934;2022-10-17T15:13:13;20.20;99.90
5176;DHT22;2607;50.934;6.934;2022-10-17T15:15:39;20.20;99.90
5176;DHT22;2607;50.934;6.934;2022-10-17T15:18:06;20.20;99.90
5176;DHT22;2607;50.934;6.934;2022-10-17T15:20:32;20.20;99.90
5176;DHT22;2607;50.934;6.934;2022-10-17T15:22:59;20.20;99.90
5176;DHT22;2607;50.934;6.934;2022-10-17T15:25:25;20.10;99.90
5176;DHT22;2607;50.934;6.934;2022-10-17T15:27:51;20.10;99.90
5176;DHT22;2607;50.934;6.934;2022-10-17T15:30:23;20.10;99.90
5176;DHT22;2607;50.934;6.934;2022-10-17T15:32:50;20.00;99.90
5176;DHT22;2607;50.934;6.934;2022-10-17T15:35:16;20.00;99.90
5176;DHT22;2607;50.934;6.934;2022-10-17T15:37:42;20.00;99.90
5176;DHT22;2607;50.934;6.934;2022-10-17T15:40:15;19.90;99.90
5176;DHT22;2607;50.934;6.934;2022-10-17T15:42:41;19.90;99.90
5176;DHT22;2607;50.934;6.934;2022-10-17T15:45:09;19.90;99.90
5176;DHT22;2607;50.934;6.934;2022-10-17T15:47:35;19.90;99.90
5176;DHT22;2607;50.934;6.934;2022-10-17T15:50:03;19.80;99.90
5176;DHT22;2607;50.934;6.934;2022-10-17T15:52:30;19.80;99.90
5176;DHT22;2607;50.934;6.934;2022-10-17T15:54:55;19.80;99.90
5176;DHT22;2607;50.934;6.934;2022-10-17T15:57:29;19.90;99.90
5176;DHT22;2607;50.934;6.934;2022-10-17T15:59:58;19.90;99.90
5176;DHT22;2607;50.934;6.934;2022-10-17T16:02:23;19.90;99.90
5176;DHT22;2607;50.934;6.934;2022-10-17T16:04:50;19.90;99.90
5176;DHT22;2607;50.934;6.934;2022-10-17T16:07:19;19.90;99.90
5176;DHT22;2607;50.934;6.934;2022-10-17T16:09:46;20.00;99.90
5176;DHT22;2607;50.934;6.934;2022-10-17T16:12:17;20.00;99.90
5176;DHT22;2607;50.934;6.934;2022-10-17T16:14:45;20.00;99.90
5176;DHT22;2607;50.934;6.934;2022-10-17T16:17:15;20.00;99.90
5176;DHT22;2607;50.934;6.934;2022-10-17T16:19:41;20.10;99.90
5176;DHT22;2607;50.934;6.934;2022-10-17T16:22:32;20.10;99.90
5176;DHT22;2607;50.934;6.934;2022-10-17T16:24:57;20.10;99.90
5176;DHT22;2607;50.934;6.934;2022-10-17T16:27:32;20.20;99.90
5176;DHT22;2607;50.934;6.934;2022-10-17T16:29:57;20.20;99.90
5176;DHT22;2607;50.934;6.934;2022-10-17T16:32:23;20.20;99.90
5176;DHT22;2607;50.934;6.934;2022-10-17T16:34:48;20.20;99.90
5176;DHT22;2607;50.934;6.934;2022-10-17T16:37:14;20.30;99.90
5176;DHT22;2607;50.934;6.934;2022-10-17T16:39:39;20.30;99.90
5176;DHT22;2607;50.934;6.934;2022-10-17T16:42:05;20.20;99.90
5176;DHT22;2607;50.934;6.934;2022-10-17T16:44:31;20.20;99.90
5176;DHT22;2607;50.934;6.934;2022-10-17T16:46:56;20.10;99.90
5176;DHT22;2607;50.934;6.934;2022-10-17T16:49:22;20.10;99.90
5176;DHT22;2607;50.934;6.934;2022-10-17T16:51:47;20.00;99.90
5176;DHT22;2607;50.934;6.934;2022-10-17T16:54:13;20.00;99.90
5176;DHT22;2607;50.934;6.934;2022-10-17T16:56:39;20.00;99.90
5176;DHT22;2607;50.934;6.934;2022-10-17T16:59:06;19.90;99.90
5176;DHT22;2607;50.934;6.934;2022-10-17T17:01:32;19.80;99.90
5176;DHT22;2607;50.934;6.934;2022-10-17T17:03:57;19.80;99.90
5176;DHT22;2607;50.934;6.934;2022-10-17T17:06:25;19.70;99.90
5176;DHT22;2607;50.934;6.934;2022-10-17T17:08:52;19.70;99.90
5176;DHT22;2607;50.934;6.934;2022-10-17T17:11:19;19.70;99.90
5176;DHT22;2607;50.934;6.934;2022-10-17T17:13:45;19.60;99.90
5176;DHT22;2607;50.934;6.934;2022-10-17T17:16:19;19.60;99.90
5176;DHT22;2607;50.934;6.934;2022-10-17T17:18:46;19.50;99.90
5176;DHT22;2607;50.934;6.934;2022-10-17T17:21:13;19.50;99.90
5176;DHT22;2607;50.934;6.934;2022-10-17T17:23:41;19.50;99.90
5176;DHT22;2607;50.934;6.934;2022-10-17T17:26:12;19.40;99.90
5176;DHT22;2607;50.934;6.934;2022-10-17T17:28:39;19.40;99.90
5176;DHT22;2607;50.934;6.934;2022-10-17T17:31:10;19.40;99.90
5176;DHT22;2607;50.934;6.934;2022-10-17T17:33:38;19.30;99.90
5176;DHT22;2607;50.934;6.934;2022-10-17T17:36:04;19.30;99.90
5176;DHT22;2607;50.934;6.934;2022-10-17T17:38:32;19.30;99.90
5176;DHT22;2607;50.934;6.934;2022-10-17T17:40:58;19.20;99.90
5176;DHT22;2607;50.934;6.934;2022-10-17T17:43:24;19.20;99.90
5176;DHT22;2607;50.934;6.934;2022-10-17T17:45:50;19.10;99.90
5176;DHT22;2607;50.934;6.934;2022-10-17T17:48:16;19.10;99.90
5176;DHT22;2607;50.934;6.934;2022-10-17T17:50:42;19.00;99.90